sensor_id;sensor_type;location;lat;lon;timestamp;pressure;altitude;pressure_sealevel;temperature;humidity
62333;BME280;48624;49.812;8.562;2023-05-07T00:00:09;100518.53;;;16.38;72.48
62333;BME280;48624;49.812;8.562;2023-05-07T00:02:36;100520.78;;;16.43;72.35
62333;BME280;48624;49.812;8.562;2023-05-07T00:05:02;100523.28;;;16.34;73.27
62333;BME280;48624;49.812;8.562;2023-05-07T00:07:28;100517.81;;;16.26;73.81
62333;BME280;48624;49.812;8.562;2023-05-07T00:09:53;100522.56;;;16.03;75.92
62333;BME280;48624;49.812;8.562;2023-05-07T00:12:18;100518.38;;;16.30;74.21
62333;BME280;48624;49.812;8.562;2023-05-07T00:14:44;100513.88;;;16.11;75.70
62333;BME280;48624;49.812;8.562;2023-05-07T00:17:10;100512.25;;;15.88;77.29
62333;BME280;48624;49.812;8.562;2023-05-07T00:19:35;100510.31;;;15.90;77.59
62333;BME280;48624;49.812;8.562;2023-05-07T00:22:00;100511.03;;;16.12;75.57
62333;BME280;48624;49.812;8.562;2023-05-07T00:24:26;100513.16;;;16.18;75.33
62333;BME280;48624;49.812;8.562;2023-05-07T00:26:51;100512.56;;;15.95;76.83
62333;BME280;48624;49.812;8.562;2023-05-07T00:29:17;100508.66;;;15.99;76.77
62333;BME280;48624;49.812;8.562;2023-05-07T00:31:43;100508.84;;;15.76;78.93
62333;BME280;48624;49.812;8.562;2023-05-07T00:34:08;100501.81;;;15.65;79.49
62333;BME280;48624;49.812;8.562;2023-05-07T00:36:33;100503.88;;;15.93;77.67
62333;BME280;48624;49.812;8.562;2023-05-07T00:38:59;100491.91;;;15.97;77.29
62333;BME280;48624;49.812;8.562;2023-05-07T00:41:25;100494.44;;;15.99;76.92
62333;BME280;48624;49.812;8.562;2023-05-07T00:43:51;100493.03;;;16.04;76.65
62333;BME280;48624;49.812;8.562;2023-05-07T00:46:17;100498.09;;;16.07;76.73
62333;BME280;48624;49.812;8.562;2023-05-07T00:48:42;100490.38;;;16.14;75.78
62333;BME280;48624;49.812;8.562;2023-05-07T00:51:09;100500.34;;;16.12;75.82
62333;BME280;48624;49.812;8.562;2023-05-07T00:53:36;100505.28;;;16.17;76.02
62333;BME280;48624;49.812;8.562;2023-05-07T00:56:02;100505.44;;;16.15;76.19
62333;BME280;48624;49.812;8.562;2023-05-07T00:58:27;100500.91;;;16.16;75.86
62333;BME280;48624;49.812;8.562;2023-05-07T01:00:52;100484.03;;;16.05;76.73
62333;BME280;48624;49.812;8.562;2023-05-07T01:03:18;100484.59;;;16.09;76.09
62333;BME280;48624;49.812;8.562;2023-05-07T01:05:45;100482.63;;;16.01;76.84
62333;BME280;48624;49.812;8.562;2023-05-07T01:08:11;100482.91;;;15.98;76.61
62333;BME280;48624;49.812;8.562;2023-05-07T01:10:37;100484.53;;;15.70;79.46
62333;BME280;48624;49.812;8.562;2023-05-07T01:13:02;100483.66;;;15.69;78.86
62333;BME280;48624;49.812;8.562;2023-05-07T01:15:28;100478.59;;;15.56;79.72
62333;BME280;48624;49.812;8.562;2023-05-07T01:17:53;100473.63;;;15.42;80.64
62333;BME280;48624;49.812;8.562;2023-05-07T01:20:20;100473.72;;;15.30;81.38
62333;BME280;48624;49.812;8.562;2023-05-07T01:22:47;100484.22;;;15.22;82.41
62333;BME280;48624;49.812;8.562;2023-05-07T01:25:14;100481.84;;;15.19;82.30
62333;BME280;48624;49.812;8.562;2023-05-07T01:27:41;100485.34;;;15.19;82.44
62333;BME280;48624;49.812;8.562;2023-05-07T01:30:07;100486.78;;;15.23;82.47
62333;BME280;48624;49.812;8.562;2023-05-07T01:32:38;100481.66;;;15.10;83.26
62333;BME280;48624;49.812;8.562;2023-05-07T01:35:09;100485.81;;;15.03;84.39
62333;BME280;48624;49.812;8.562;2023-05-07T01:37:36;100482.25;;;14.71;86.54
62333;BME280;48624;49.812;8.562;2023-05-07T01:40:02;100484.97;;;14.39;88.65
62333;BME280;48624;49.812;8.562;2023-05-07T01:42:29;100476.81;;;14.73;86.89
62333;BME280;48624;49.812;8.562;2023-05-07T01:44:54;100474.13;;;14.94;85.13
62333;BME280;48624;49.812;8.562;2023-05-07T01:47:20;100472.31;;;14.74;87.02
62333;BME280;48624;49.812;8.562;2023-05-07T01:49:46;100488.66;;;14.80;86.71
62333;BME280;48624;49.812;8.562;2023-05-07T01:52:11;100467.84;;;15.05;84.21
62333;BME280;48624;49.812;8.562;2023-05-07T01:54:37;100470.69;;;15.04;84.39
62333;BME280;48624;49.812;8.562;2023-05-07T01:57:02;100464.69;;;15.21;82.96
62333;BME280;48624;49.812;8.562;2023-05-07T01:59:27;100469.06;;;15.22;82.68
62333;BME280;48624;49.812;8.562;2023-05-07T02:01:53;100473.38;;;15.14;83.79
62333;BME280;48624;49.812;8.562;2023-05-07T02:04:18;100468.50;;;15.19;82.55
62333;BME280;48624;49.812;8.562;2023-05-07T02:06:43;100479.19;;;15.29;81.86
62333;BME280;48624;49.812;8.562;2023-05-07T02:09:09;100464.66;;;15.11;83.03
62333;BME280;48624;49.812;8.562;2023-05-07T02:11:34;100471.59;;;14.93;85.07
62333;BME280;48624;49.812;8.562;2023-05-07T02:14:00;100466.78;;;14.87;85.63
62333;BME280;48624;49.812;8.562;2023-05-07T02:16:25;100471.13;;;14.88;85.23
62333;BME280;48624;49.812;8.562;2023-05-07T02:18:51;100468.16;;;14.81;85.99
62333;BME280;48624;49.812;8.562;2023-05-07T02:21:16;100473.41;;;14.50;88.22
62333;BME280;48624;49.812;8.562;2023-05-07T02:23:41;100467.59;;;14.45;88.61
62333;BME280;48624;49.812;8.562;2023-05-07T02:26:07;100471.38;;;14.21;90.03
62333;BME280;48624;49.812;8.562;2023-05-07T02:28:32;100467.50;;;14.67;86.55
62333;BME280;48624;49.812;8.562;2023-05-07T02:31:00;100475.47;;;14.46;88.55
62333;BME280;48624;49.812;8.562;2023-05-07T02:33:25;100474.38;;;14.49;88.45
62333;BME280;48624;49.812;8.562;2023-05-07T02:35:51;100479.31;;;14.53;87.99
62333;BME280;48624;49.812;8.562;2023-05-07T02:38:17;100483.47;;;14.46;89.05
62333;BME280;48624;49.812;8.562;2023-05-07T02:40:42;100494.47;;;14.53;88.81
62333;BME280;48624;49.812;8.562;2023-05-07T02:43:09;100482.88;;;14.42;89.83
62333;BME280;48624;49.812;8.562;2023-05-07T02:45:34;100495.69;;;14.27;91.30
62333;BME280;48624;49.812;8.562;2023-05-07T02:48:01;100490.41;;;14.16;92.25
62333;BME280;48624;49.812;8.562;2023-05-07T02:50:26;100485.50;;;14.21;91.87
62333;BME280;48624;49.812;8.562;2023-05-07T02:52:52;100479.94;;;14.24;91.99
62333;BME280;48624;49.812;8.562;2023-05-07T02:55:17;100487.25;;;14.11;93.20
62333;BME280;48624;49.812;8.562;2023-05-07T02:57:42;100481.50;;;13.94;94.92
62333;BME280;48624;49.812;8.562;2023-05-07T03:00:26;100484.91;;;14.18;92.52
62333;BME280;48624;49.812;8.562;2023-05-07T03:02:51;100484.28;;;14.58;89.84
62333;BME280;48624;49.812;8.562;2023-05-07T03:05:16;100481.31;;;14.19;92.82
62333;BME280;48624;49.812;8.562;2023-05-07T03:07:42;100477.34;;;14.34;91.56
62333;BME280;48624;49.812;8.562;2023-05-07T03:10:10;100478.22;;;14.35;91.66
62333;BME280;48624;49.812;8.562;2023-05-07T03:12:35;100482.22;;;14.29;92.39
62333;BME280;48624;49.812;8.562;2023-05-07T03:15:01;100477.94;;;14.38;91.74
62333;BME280;48624;49.812;8.562;2023-05-07T03:17:26;100476.34;;;14.47;91.20
62333;BME280;48624;49.812;8.562;2023-05-07T03:19:51;100471.31;;;14.53;90.55
62333;BME280;48624;49.812;8.562;2023-05-07T03:22:16;100476.38;;;14.35;91.92
62333;BME280;48624;49.812;8.562;2023-05-07T03:24:42;100463.13;;;14.45;91.76
62333;BME280;48624;49.812;8.562;2023-05-07T03:27:07;100460.25;;;14.37;91.84
62333;BME280;48624;49.812;8.562;2023-05-07T03:29:32;100456.88;;;14.35;92.02
62333;BME280;48624;49.812;8.562;2023-05-07T03:31:57;100463.69;;;14.70;89.02
62333;BME280;48624;49.812;8.562;2023-05-07T03:34:23;100446.78;;;14.60;90.20
62333;BME280;48624;49.812;8.562;2023-05-07T03:36:49;100457.72;;;14.56;90.29
62333;BME280;48624;49.812;8.562;2023-05-07T03:39:14;100440.25;;;14.85;87.95
62333;BME280;48624;49.812;8.562;2023-05-07T03:41:40;100451.41;;;14.57;89.49
62333;BME280;48624;49.812;8.562;2023-05-07T03:44:05;100449.47;;;14.60;89.42
62333;BME280;48624;49.812;8.562;2023-05-07T03:46:31;100442.47;;;14.37;90.51
62333;BME280;48624;49.812;8.562;2023-05-07T03:48:57;100444.97;;;14.60;88.65
62333;BME280;48624;49.812;8.562;2023-05-07T03:51:23;100443.41;;;14.57;88.50
62333;BME280;48624;49.812;8.562;2023-05-07T03:53:49;100437.06;;;14.49;88.51
62333;BME280;48624;49.812;8.562;2023-05-07T03:56:15;100437.53;;;14.75;86.87
62333;BME280;48624;49.812;8.562;2023-05-07T03:58:40;100435.66;;;14.97;84.80
62333;BME280;48624;49.812;8.562;2023-05-07T04:01:07;100446.66;;;15.04;83.59
62333;BME280;48624;49.812;8.562;2023-05-07T04:03:32;100444.88;;;15.14;83.24
62333;BME280;48624;49.812;8.562;2023-05-07T04:05:57;100447.63;;;15.34;81.42
62333;BME280;48624;49.812;8.562;2023-05-07T04:08:23;100456.44;;;15.24;81.40
62333;BME280;48624;49.812;8.562;2023-05-07T04:10:48;100452.72;;;15.16;81.10
62333;BME280;48624;49.812;8.562;2023-05-07T04:13:21;100460.56;;;15.38;80.51
62333;BME280;48624;49.812;8.562;2023-05-07T04:15:47;100469.06;;;15.22;81.05
62333;BME280;48624;49.812;8.562;2023-05-07T04:18:14;100464.91;;;15.39;80.95
62333;BME280;48624;49.812;8.562;2023-05-07T04:20:39;100466.44;;;15.32;81.25
62333;BME280;48624;49.812;8.562;2023-05-07T04:23:05;100466.44;;;15.32;81.05
62333;BME280;48624;49.812;8.562;2023-05-07T04:25:30;100473.69;;;15.20;82.26
62333;BME280;48624;49.812;8.562;2023-05-07T04:27:56;100473.75;;;15.40;80.79
62333;BME280;48624;49.812;8.562;2023-05-07T04:30:22;100483.28;;;15.33;81.90
62333;BME280;48624;49.812;8.562;2023-05-07T04:32:47;100482.22;;;15.55;80.07
62333;BME280;48624;49.812;8.562;2023-05-07T04:35:13;100478.56;;;15.46;80.41
62333;BME280;48624;49.812;8.562;2023-05-07T04:37:39;100474.38;;;15.53;80.34
62333;BME280;48624;49.812;8.562;2023-05-07T04:40:05;100475.09;;;15.65;80.00
62333;BME280;48624;49.812;8.562;2023-05-07T04:42:31;100477.38;;;15.29;82.02
62333;BME280;48624;49.812;8.562;2023-05-07T04:44:56;100476.69;;;15.27;82.54
62333;BME280;48624;49.812;8.562;2023-05-07T04:47:21;100479.50;;;15.35;82.41
62333;BME280;48624;49.812;8.562;2023-05-07T04:49:47;100475.94;;;15.56;81.14
62333;BME280;48624;49.812;8.562;2023-05-07T04:52:12;100477.22;;;15.62;80.85
62333;BME280;48624;49.812;8.562;2023-05-07T04:54:37;100485.50;;;15.78;79.90
62333;BME280;48624;49.812;8.562;2023-05-07T04:57:05;100486.66;;;15.86;78.79
62333;BME280;48624;49.812;8.562;2023-05-07T04:59:32;100489.44;;;15.74;79.31
62333;BME280;48624;49.812;8.562;2023-05-07T05:01:58;100486.28;;;15.90;78.42
62333;BME280;48624;49.812;8.562;2023-05-07T05:04:23;100482.84;;;15.68;79.08
62333;BME280;48624;49.812;8.562;2023-05-07T05:06:49;100488.06;;;15.70;78.01
62333;BME280;48624;49.812;8.562;2023-05-07T05:09:14;100488.53;;;15.95;77.56
62333;BME280;48624;49.812;8.562;2023-05-07T05:11:41;100487.22;;;15.89;77.34
62333;BME280;48624;49.812;8.562;2023-05-07T05:14:06;100489.81;;;15.91;77.14
62333;BME280;48624;49.812;8.562;2023-05-07T05:16:33;100487.16;;;16.30;75.09
62333;BME280;48624;49.812;8.562;2023-05-07T05:18:59;100491.53;;;16.41;74.28
62333;BME280;48624;49.812;8.562;2023-05-07T05:21:24;100491.63;;;16.49;74.42
62333;BME280;48624;49.812;8.562;2023-05-07T05:23:49;100500.25;;;16.43;74.06
62333;BME280;48624;49.812;8.562;2023-05-07T05:26:15;100503.34;;;16.19;75.49
62333;BME280;48624;49.812;8.562;2023-05-07T05:28:41;100508.53;;;16.30;76.15
62333;BME280;48624;49.812;8.562;2023-05-07T05:31:07;100507.94;;;16.17;77.65
62333;BME280;48624;49.812;8.562;2023-05-07T05:33:32;100511.75;;;16.44;75.75
62333;BME280;48624;49.812;8.562;2023-05-07T05:35:57;100514.31;;;16.45;76.09
62333;BME280;48624;49.812;8.562;2023-05-07T05:38:23;100505.84;;;16.70;74.98
62333;BME280;48624;49.812;8.562;2023-05-07T05:40:48;100511.91;;;16.32;76.83
62333;BME280;48624;49.812;8.562;2023-05-07T05:43:14;100510.34;;;16.59;75.89
62333;BME280;48624;49.812;8.562;2023-05-07T05:45:39;100509.09;;;16.54;75.98
62333;BME280;48624;49.812;8.562;2023-05-07T05:48:05;100513.00;;;16.69;75.54
62333;BME280;48624;49.812;8.562;2023-05-07T05:50:31;100515.53;;;16.81;75.67
62333;BME280;48624;49.812;8.562;2023-05-07T05:52:56;100511.63;;;16.75;74.45
62333;BME280;48624;49.812;8.562;2023-05-07T05:55:22;100520.06;;;16.70;74.67
62333;BME280;48624;49.812;8.562;2023-05-07T05:57:50;100520.88;;;17.00;74.02
62333;BME280;48624;49.812;8.562;2023-05-07T06:00:16;100521.53;;;16.92;74.71
62333;BME280;48624;49.812;8.562;2023-05-07T06:02:42;100520.28;;;17.06;73.95
62333;BME280;48624;49.812;8.562;2023-05-07T06:05:10;100521.38;;;17.24;73.55
62333;BME280;48624;49.812;8.562;2023-05-07T06:07:35;100521.28;;;17.05;74.00
62333;BME280;48624;49.812;8.562;2023-05-07T06:10:01;100517.56;;;17.26;73.75
62333;BME280;48624;49.812;8.562;2023-05-07T06:12:26;100517.72;;;17.25;74.61
62333;BME280;48624;49.812;8.562;2023-05-07T06:14:52;100527.47;;;16.96;75.84
62333;BME280;48624;49.812;8.562;2023-05-07T06:17:17;100535.91;;;16.91;76.45
62333;BME280;48624;49.812;8.562;2023-05-07T06:19:42;100524.94;;;16.85;76.00
62333;BME280;48624;49.812;8.562;2023-05-07T06:22:08;100530.00;;;16.88;76.31
62333;BME280;48624;49.812;8.562;2023-05-07T06:24:33;100526.91;;;16.92;75.21
62333;BME280;48624;49.812;8.562;2023-05-07T06:26:59;100531.56;;;16.90;75.54
62333;BME280;48624;49.812;8.562;2023-05-07T06:29:26;100529.75;;;16.91;75.01
62333;BME280;48624;49.812;8.562;2023-05-07T06:31:54;100525.06;;;17.13;73.92
62333;BME280;48624;49.812;8.562;2023-05-07T06:34:19;100528.34;;;16.67;75.44
62333;BME280;48624;49.812;8.562;2023-05-07T06:36:45;100527.34;;;16.88;73.94
62333;BME280;48624;49.812;8.562;2023-05-07T06:39:11;100525.25;;;17.39;72.16
62333;BME280;48624;49.812;8.562;2023-05-07T06:41:37;100529.09;;;17.37;72.29
62333;BME280;48624;49.812;8.562;2023-05-07T06:44:04;100540.94;;;17.24;72.88
62333;BME280;48624;49.812;8.562;2023-05-07T06:46:30;100536.50;;;17.43;72.33
62333;BME280;48624;49.812;8.562;2023-05-07T06:48:56;100538.94;;;17.92;69.82
62333;BME280;48624;49.812;8.562;2023-05-07T06:51:22;100540.72;;;18.01;69.26
62333;BME280;48624;49.812;8.562;2023-05-07T06:53:49;100537.41;;;17.61;70.63
62333;BME280;48624;49.812;8.562;2023-05-07T06:56:14;100533.63;;;17.54;71.50
62333;BME280;48624;49.812;8.562;2023-05-07T06:58:40;100543.00;;;17.68;70.75
62333;BME280;48624;49.812;8.562;2023-05-07T07:01:05;100540.44;;;17.77;70.10
62333;BME280;48624;49.812;8.562;2023-05-07T07:03:30;100532.13;;;17.98;69.63
62333;BME280;48624;49.812;8.562;2023-05-07T07:05:55;100535.56;;;18.18;68.76
62333;BME280;48624;49.812;8.562;2023-05-07T07:08:21;100528.53;;;18.17;66.50
62333;BME280;48624;49.812;8.562;2023-05-07T07:10:47;100535.56;;;18.18;67.06
62333;BME280;48624;49.812;8.562;2023-05-07T07:13:13;100526.75;;;18.26;65.76
62333;BME280;48624;49.812;8.562;2023-05-07T07:15:38;100531.34;;;18.34;66.52
62333;BME280;48624;49.812;8.562;2023-05-07T07:18:04;100535.78;;;18.43;65.53
62333;BME280;48624;49.812;8.562;2023-05-07T07:20:29;100543.22;;;18.13;65.46
62333;BME280;48624;49.812;8.562;2023-05-07T07:22:55;100546.97;;;18.20;65.85
62333;BME280;48624;49.812;8.562;2023-05-07T07:25:21;100551.50;;;18.74;63.82
62333;BME280;48624;49.812;8.562;2023-05-07T07:27:48;100549.28;;;18.51;64.71
62333;BME280;48624;49.812;8.562;2023-05-07T07:30:14;100556.25;;;18.62;64.23
62333;BME280;48624;49.812;8.562;2023-05-07T07:32:39;100551.81;;;18.53;65.05
62333;BME280;48624;49.812;8.562;2023-05-07T07:35:05;100550.13;;;18.52;64.60
62333;BME280;48624;49.812;8.562;2023-05-07T07:37:31;100550.63;;;18.74;64.19
62333;BME280;48624;49.812;8.562;2023-05-07T07:39:56;100559.22;;;18.77;63.28
62333;BME280;48624;49.812;8.562;2023-05-07T07:42:21;100559.66;;;19.09;62.54
62333;BME280;48624;49.812;8.562;2023-05-07T07:44:47;100565.03;;;18.91;62.59
62333;BME280;48624;49.812;8.562;2023-05-07T07:47:12;100555.94;;;18.65;64.05
62333;BME280;48624;49.812;8.562;2023-05-07T07:49:37;100558.22;;;18.78;63.46
62333;BME280;48624;49.812;8.562;2023-05-07T07:52:03;100563.19;;;18.91;63.32
62333;BME280;48624;49.812;8.562;2023-05-07T07:54:28;100562.97;;;18.84;62.85
62333;BME280;48624;49.812;8.562;2023-05-07T07:56:54;100560.94;;;18.60;63.69
62333;BME280;48624;49.812;8.562;2023-05-07T07:59:19;100561.44;;;18.82;63.66
62333;BME280;48624;49.812;8.562;2023-05-07T08:01:46;100569.84;;;18.87;63.74
62333;BME280;48624;49.812;8.562;2023-05-07T08:04:13;100571.16;;;19.01;62.07
62333;BME280;48624;49.812;8.562;2023-05-07T08:06:39;100567.84;;;19.34;61.60
62333;BME280;48624;49.812;8.562;2023-05-07T08:09:05;100569.53;;;19.08;62.14
62333;BME280;48624;49.812;8.562;2023-05-07T08:11:30;100569.94;;;19.13;62.50
62333;BME280;48624;49.812;8.562;2023-05-07T08:13:55;100567.31;;;19.30;62.64
62333;BME280;48624;49.812;8.562;2023-05-07T08:16:21;100565.22;;;19.42;61.72
62333;BME280;48624;49.812;8.562;2023-05-07T08:18:48;100563.28;;;19.61;60.97
62333;BME280;48624;49.812;8.562;2023-05-07T08:21:13;100560.78;;;19.33;62.03
62333;BME280;48624;49.812;8.562;2023-05-07T08:23:40;100554.63;;;19.75;60.28
62333;BME280;48624;49.812;8.562;2023-05-07T08:26:05;100556.97;;;19.78;59.42
62333;BME280;48624;49.812;8.562;2023-05-07T08:28:30;100566.13;;;19.24;62.09
62333;BME280;48624;49.812;8.562;2023-05-07T08:30:55;100562.31;;;19.70;60.67
62333;BME280;48624;49.812;8.562;2023-05-07T08:33:26;100567.53;;;19.72;60.05
62333;BME280;48624;49.812;8.562;2023-05-07T08:35:51;100563.63;;;19.58;60.89
62333;BME280;48624;49.812;8.562;2023-05-07T08:38:16;100563.72;;;19.82;59.74
62333;BME280;48624;49.812;8.562;2023-05-07T08:40:42;100567.66;;;19.96;60.20
62333;BME280;48624;49.812;8.562;2023-05-07T08:43:07;100571.75;;;20.17;60.03
62333;BME280;48624;49.812;8.562;2023-05-07T08:45:33;100572.25;;;20.29;58.90
62333;BME280;48624;49.812;8.562;2023-05-07T08:48:02;100573.75;;;20.07;60.33
62333;BME280;48624;49.812;8.562;2023-05-07T08:50:28;100567.91;;;20.36;59.27
62333;BME280;48624;49.812;8.562;2023-05-07T08:52:54;100568.53;;;20.05;58.85
62333;BME280;48624;49.812;8.562;2023-05-07T08:55:21;100577.19;;;20.59;56.90
62333;BME280;48624;49.812;8.562;2023-05-07T08:57:47;100581.38;;;20.45;58.13
62333;BME280;48624;49.812;8.562;2023-05-07T09:00:13;100570.84;;;20.00;59.02
62333;BME280;48624;49.812;8.562;2023-05-07T09:02:39;100574.81;;;20.47;58.66
62333;BME280;48624;49.812;8.562;2023-05-07T09:05:05;100573.97;;;20.38;58.95
62333;BME280;48624;49.812;8.562;2023-05-07T09:07:30;100575.50;;;20.49;58.75
62333;BME280;48624;49.812;8.562;2023-05-07T09:09:56;100576.19;;;20.68;59.11
62333;BME280;48624;49.812;8.562;2023-05-07T09:12:22;100573.50;;;20.76;58.30
62333;BME280;48624;49.812;8.562;2023-05-07T09:14:48;100577.19;;;20.59;57.82
62333;BME280;48624;49.812;8.562;2023-05-07T09:17:15;100581.09;;;20.98;57.65
62333;BME280;48624;49.812;8.562;2023-05-07T09:19:43;100575.53;;;20.91;56.32
62333;BME280;48624;49.812;8.562;2023-05-07T09:22:09;100576.88;;;20.95;56.32
62333;BME280;48624;49.812;8.562;2023-05-07T09:24:34;100577.03;;;21.02;57.10
62333;BME280;48624;49.812;8.562;2023-05-07T09:27:03;100586.59;;;20.79;57.88
62333;BME280;48624;49.812;8.562;2023-05-07T09:29:28;100580.06;;;20.99;57.75
62333;BME280;48624;49.812;8.562;2023-05-07T09:31:55;100581.47;;;21.59;55.99
62333;BME280;48624;49.812;8.562;2023-05-07T09:34:21;100580.63;;;21.51;56.26
62333;BME280;48624;49.812;8.562;2023-05-07T09:36:46;100578.59;;;21.53;55.63
62333;BME280;48624;49.812;8.562;2023-05-07T09:39:12;100583.28;;;21.75;54.83
62333;BME280;48624;49.812;8.562;2023-05-07T09:41:45;100577.44;;;21.47;56.29
62333;BME280;48624;49.812;8.562;2023-05-07T09:44:11;100575.94;;;21.44;56.39
62333;BME280;48624;49.812;8.562;2023-05-07T09:46:38;100575.72;;;21.71;55.77
62333;BME280;48624;49.812;8.562;2023-05-07T09:49:06;100575.13;;;21.92;54.07
62333;BME280;48624;49.812;8.562;2023-05-07T09:51:39;100580.72;;;21.82;54.75
62333;BME280;48624;49.812;8.562;2023-05-07T09:54:06;100580.03;;;21.88;54.90
62333;BME280;48624;49.812;8.562;2023-05-07T09:56:32;100577.94;;;21.99;54.19
62333;BME280;48624;49.812;8.562;2023-05-07T09:59:00;100575.34;;;22.14;53.84
62333;BME280;48624;49.812;8.562;2023-05-07T10:01:26;100581.53;;;21.91;53.85
62333;BME280;48624;49.812;8.562;2023-05-07T10:03:52;100576.22;;;22.06;52.70
62333;BME280;48624;49.812;8.562;2023-05-07T10:06:19;100568.97;;;22.07;53.27
62333;BME280;48624;49.812;8.562;2023-05-07T10:08:45;100565.81;;;21.55;55.25
62333;BME280;48624;49.812;8.562;2023-05-07T10:11:11;100567.41;;;21.81;54.57
62333;BME280;48624;49.812;8.562;2023-05-07T10:13:37;100554.16;;;21.62;55.90
62333;BME280;48624;49.812;8.562;2023-05-07T10:16:04;100565.53;;;21.89;54.34
62333;BME280;48624;49.812;8.562;2023-05-07T10:18:33;100569.53;;;21.94;54.86
62333;BME280;48624;49.812;8.562;2023-05-07T10:21:11;100558.41;;;21.97;53.96
62333;BME280;48624;49.812;8.562;2023-05-07T10:23:41;100556.69;;;22.27;54.03
62333;BME280;48624;49.812;8.562;2023-05-07T10:26:10;100562.09;;;22.74;53.65
62333;BME280;48624;49.812;8.562;2023-05-07T10:28:42;100562.03;;;22.82;52.60
62333;BME280;48624;49.812;8.562;2023-05-07T10:33:43;100559.78;;;23.54;51.06
62333;BME280;48624;49.812;8.562;2023-05-07T10:36:09;100552.31;;;23.56;50.46
62333;BME280;48624;49.812;8.562;2023-05-07T10:38:35;100543.66;;;23.46;50.64
62333;BME280;48624;49.812;8.562;2023-05-07T10:41:01;100552.38;;;23.18;50.96
62333;BME280;48624;49.812;8.562;2023-05-07T10:43:43;100546.84;;;23.35;51.37
62333;BME280;48624;49.812;8.562;2023-05-07T10:46:14;100548.69;;;23.64;51.50
62333;BME280;48624;49.812;8.562;2023-05-07T10:51:30;100526.88;;;23.51;51.20
62333;BME280;48624;49.812;8.562;2023-05-07T10:56:41;100535.28;;;24.51;47.69
62333;BME280;48624;49.812;8.562;2023-05-07T10:59:31;100533.09;;;24.40;47.71
62333;BME280;48624;49.812;8.562;2023-05-07T11:01:59;100541.16;;;24.55;48.69
62333;BME280;48624;49.812;8.562;2023-05-07T11:04:27;100537.41;;;25.06;46.98
62333;BME280;48624;49.812;8.562;2023-05-07T11:07:14;100535.09;;;25.39;45.25
62333;BME280;48624;49.812;8.562;2023-05-07T11:15:11;100533.50;;;25.16;46.26
62333;BME280;48624;49.812;8.562;2023-05-07T11:17:54;100524.34;;;25.17;45.98
62333;BME280;48624;49.812;8.562;2023-05-07T11:20:44;100527.50;;;25.62;44.64
62333;BME280;48624;49.812;8.562;2023-05-07T11:25:59;100536.81;;;26.02;44.97
62333;BME280;48624;49.812;8.562;2023-05-07T11:28:27;100531.25;;;26.24;43.78
62333;BME280;48624;49.812;8.562;2023-05-07T11:30:53;100527.19;;;25.86;43.61
62333;BME280;48624;49.812;8.562;2023-05-07T11:33:19;100521.41;;;26.16;43.63
62333;BME280;48624;49.812;8.562;2023-05-07T11:35:45;100519.59;;;26.57;42.37
62333;BME280;48624;49.812;8.562;2023-05-07T11:38:12;100517.63;;;26.17;42.34
62333;BME280;48624;49.812;8.562;2023-05-07T11:40:57;100508.09;;;26.68;41.83
62333;BME280;48624;49.812;8.562;2023-05-07T11:43:24;100516.84;;;26.43;41.51
62333;BME280;48624;49.812;8.562;2023-05-07T11:45:49;100510.59;;;26.43;41.80
62333;BME280;48624;49.812;8.562;2023-05-07T11:48:16;100515.81;;;26.24;40.83
62333;BME280;48624;49.812;8.562;2023-05-07T11:51:03;100514.34;;;26.89;40.58
62333;BME280;48624;49.812;8.562;2023-05-07T11:53:40;100501.59;;;26.69;42.00
62333;BME280;48624;49.812;8.562;2023-05-07T11:56:10;100508.03;;;27.15;40.50
62333;BME280;48624;49.812;8.562;2023-05-07T11:58:38;100507.38;;;27.20;40.44
62333;BME280;48624;49.812;8.562;2023-05-07T12:01:03;100501.00;;;27.60;39.67
62333;BME280;48624;49.812;8.562;2023-05-07T12:03:29;100506.66;;;27.97;38.88
62333;BME280;48624;49.812;8.562;2023-05-07T12:05:54;100501.47;;;28.21;38.93
62333;BME280;48624;49.812;8.562;2023-05-07T12:08:21;100500.88;;;28.96;37.30
62333;BME280;48624;49.812;8.562;2023-05-07T12:10:49;100498.13;;;27.87;37.72
62333;BME280;48624;49.812;8.562;2023-05-07T12:13:18;100497.63;;;28.04;38.59
62333;BME280;48624;49.812;8.562;2023-05-07T12:15:44;100498.28;;;28.31;37.40
62333;BME280;48624;49.812;8.562;2023-05-07T12:18:13;100504.28;;;28.40;37.71
62333;BME280;48624;49.812;8.562;2023-05-07T12:20:39;100500.44;;;28.16;37.37
62333;BME280;48624;49.812;8.562;2023-05-07T12:23:05;100498.00;;;29.28;34.72
62333;BME280;48624;49.812;8.562;2023-05-07T12:25:31;100494.50;;;28.83;35.68
62333;BME280;48624;49.812;8.562;2023-05-07T12:27:57;100488.59;;;28.86;36.50
62333;BME280;48624;49.812;8.562;2023-05-07T12:30:24;100494.16;;;29.17;35.49
62333;BME280;48624;49.812;8.562;2023-05-07T12:32:53;100486.13;;;28.78;34.92
62333;BME280;48624;49.812;8.562;2023-05-07T12:35:29;100492.72;;;29.33;34.53
62333;BME280;48624;49.812;8.562;2023-05-07T12:37:58;100481.22;;;29.61;35.20
62333;BME280;48624;49.812;8.562;2023-05-07T12:40:35;100490.28;;;29.25;34.73
62333;BME280;48624;49.812;8.562;2023-05-07T12:43:01;100491.72;;;29.65;34.36
62333;BME280;48624;49.812;8.562;2023-05-07T12:45:27;100480.44;;;29.73;34.63
62333;BME280;48624;49.812;8.562;2023-05-07T12:47:52;100479.19;;;29.38;34.25
62333;BME280;48624;49.812;8.562;2023-05-07T12:50:17;100476.72;;;29.55;34.44
62333;BME280;48624;49.812;8.562;2023-05-07T12:52:47;100480.13;;;29.81;32.90
62333;BME280;48624;49.812;8.562;2023-05-07T12:55:14;100470.97;;;30.06;33.59
62333;BME280;48624;49.812;8.562;2023-05-07T12:57:43;100466.41;;;29.39;33.41
62333;BME280;48624;49.812;8.562;2023-05-07T13:00:09;100469.81;;;30.62;32.22
62333;BME280;48624;49.812;8.562;2023-05-07T13:02:38;100462.06;;;29.49;33.64